createdAt,value
2023-08-23T00:00:21.492Z,84.92
2023-08-23T00:02:53.403Z,84.40
2023-08-23T00:05:23.506Z,84.81
2023-08-23T00:07:54.144Z,84.49
2023-08-23T00:10:24.371Z,83.87
2023-08-23T00:12:58.371Z,84.34
2023-08-23T00:15:30.120Z,84.09
2023-08-23T00:18:00.433Z,84.29
2023-08-23T00:20:30.797Z,84.13
2023-08-23T00:23:00.808Z,84.80
2023-08-23T00:25:30.563Z,84.48
2023-08-23T00:28:12.575Z,83.40
2023-08-23T00:30:51.701Z,82.31
2023-08-23T00:33:21.873Z,81.78
2023-08-23T00:35:53.651Z,81.31
2023-08-23T00:38:24.507Z,80.43
2023-08-23T00:40:54.522Z,79.72
2023-08-23T00:43:24.484Z,79.24
2023-08-23T00:45:57.712Z,78.67
2023-08-23T00:48:31.469Z,77.60
2023-08-23T00:51:02.121Z,77.58
2023-08-23T00:53:33.682Z,77.05
2023-08-23T00:56:03.784Z,76.63
2023-08-23T00:58:34.881Z,76.89
2023-08-23T01:01:08.072Z,76.68
2023-08-23T01:03:43.747Z,76.48
2023-08-23T01:06:22.348Z,76.78
2023-08-23T01:09:01.870Z,76.65
2023-08-23T01:11:45.951Z,76.41
2023-08-23T01:14:25.029Z,76.14
2023-08-23T01:16:55.492Z,76.17
2023-08-23T01:19:37.241Z,76.58
2023-08-23T01:22:11.990Z,76.73
2023-08-23T01:24:44.699Z,76.70
2023-08-23T01:27:15.361Z,75.18
2023-08-23T01:29:49.620Z,74.83
2023-08-23T01:32:38.094Z,74.45
2023-08-23T01:35:19.773Z,74.36
2023-08-23T01:37:54.850Z,73.58
2023-08-23T01:40:25.260Z,72.74
2023-08-23T01:42:56.503Z,71.59
2023-08-23T01:45:26.640Z,70.95
2023-08-23T01:47:56.702Z,70.92
2023-08-23T01:50:28.310Z,71.00
2023-08-23T01:52:58.571Z,71.94
2023-08-23T01:55:28.823Z,70.72
2023-08-23T01:57:59.913Z,69.44
2023-08-23T02:00:29.951Z,69.18
2023-08-23T02:03:00.193Z,69.50
2023-08-23T02:05:33.418Z,71.74
2023-08-23T02:08:03.772Z,71.79
2023-08-23T02:10:34.639Z,71.25
2023-08-23T02:13:08.858Z,72.05
2023-08-23T02:15:39.508Z,72.41
2023-08-23T02:18:09.642Z,71.18
2023-08-23T02:20:41.695Z,70.24
2023-08-23T02:23:11.807Z,69.86
2023-08-23T02:25:46.788Z,70.00
2023-08-23T02:28:17.507Z,68.69
2023-08-23T02:30:50.133Z,68.49
2023-08-23T02:33:21.117Z,68.60
2023-08-23T02:35:51.448Z,67.62
2023-08-23T02:38:22.144Z,68.09
2023-08-23T02:40:52.528Z,67.20
2023-08-23T02:43:26.384Z,67.66
2023-08-23T02:45:58.159Z,66.66
2023-08-23T02:48:28.445Z,65.61
2023-08-23T02:50:58.916Z,65.29
2023-08-23T02:53:29.340Z,64.71
2023-08-23T02:55:59.670Z,65.42
2023-08-23T02:58:29.787Z,64.88
2023-08-23T03:00:59.911Z,64.76
2023-08-23T03:03:30.084Z,65.33
2023-08-23T03:06:00.925Z,64.73
2023-08-23T03:08:31.057Z,64.94
2023-08-23T03:11:05.737Z,65.07
2023-08-23T03:13:36.297Z,63.37
2023-08-23T03:16:07.247Z,63.52
2023-08-23T03:18:37.560Z,63.97
2023-08-23T03:21:09.158Z,63.54
2023-08-23T03:23:42.379Z,64.74
2023-08-23T03:26:12.608Z,64.18
2023-08-23T03:28:42.940Z,64.71
2023-08-23T03:31:14.441Z,63.62
2023-08-23T03:33:46.717Z,63.51
2023-08-23T03:36:16.830Z,63.77
2023-08-23T03:38:49.712Z,63.76
2023-08-23T03:41:19.818Z,65.05
2023-08-23T03:43:50.169Z,65.69
2023-08-23T03:46:24.602Z,64.97
2023-08-23T03:48:59.702Z,65.65
2023-08-23T03:51:30.182Z,65.40
2023-08-23T03:54:00.618Z,64.85
2023-08-23T03:56:30.938Z,65.66
2023-08-23T03:59:02.970Z,65.99
2023-08-23T04:01:33.198Z,65.00
2023-08-23T04:04:04.357Z,65.01
2023-08-23T04:06:36.238Z,64.51
2023-08-23T04:09:06.429Z,64.46
2023-08-23T04:11:37.220Z,64.84
2023-08-23T04:14:08.497Z,64.58
2023-08-23T04:16:39.216Z,64.28
2023-08-23T04:19:10.013Z,65.03
2023-08-23T04:21:40.631Z,65.20
2023-08-23T04:24:11.084Z,65.05
2023-08-23T04:26:41.174Z,64.21
2023-08-23T04:29:13.903Z,63.69
2023-08-23T04:31:44.818Z,63.65
2023-08-23T04:34:26.939Z,64.17
2023-08-23T04:36:56.934Z,64.20
2023-08-23T04:39:28.185Z,64.36
2023-08-23T04:42:00.041Z,64.67
2023-08-23T04:44:32.360Z,64.64
2023-08-23T04:47:03.931Z,64.51
2023-08-23T04:49:34.210Z,64.21
2023-08-23T04:52:05.113Z,65.51
2023-08-23T04:54:35.329Z,64.89
2023-08-23T04:57:07.864Z,64.75
2023-08-23T04:59:38.561Z,64.82
2023-08-23T05:02:09.793Z,64.66
2023-08-23T05:04:41.046Z,64.82
2023-08-23T05:07:17.481Z,64.41
2023-08-23T05:09:47.677Z,64.11
2023-08-23T05:12:19.240Z,64.81
2023-08-23T05:14:49.381Z,65.97
2023-08-23T05:17:20.793Z,65.52
2023-08-23T05:19:51.461Z,65.67
2023-08-23T05:22:22.482Z,66.22
2023-08-23T05:24:52.521Z,66.98
2023-08-23T05:27:25.792Z,67.13
2023-08-23T05:29:59.062Z,67.51
2023-08-23T05:32:29.484Z,67.51
2023-08-23T05:35:00.285Z,67.58
2023-08-23T05:37:30.431Z,67.23
2023-08-23T05:40:01.505Z,66.72
2023-08-23T05:42:32.905Z,67.17
2023-08-23T05:45:02.979Z,67.57
2023-08-23T05:47:35.511Z,67.42
2023-08-23T05:50:06.399Z,67.39
2023-08-23T05:52:36.497Z,66.77
2023-08-23T05:55:10.133Z,65.86
2023-08-23T05:57:42.520Z,66.33
2023-08-23T06:00:13.669Z,65.67
2023-08-23T06:02:45.739Z,65.90
2023-08-23T06:05:16.397Z,65.52
2023-08-23T06:07:47.508Z,65.13
2023-08-23T06:10:18.706Z,64.86
2023-08-23T06:12:49.713Z,65.91
2023-08-23T06:15:19.808Z,66.18
2023-08-23T06:17:51.995Z,66.73
2023-08-23T06:20:22.534Z,65.94
2023-08-23T06:22:52.863Z,66.60
2023-08-23T06:25:23.254Z,66.39
2023-08-23T06:27:53.672Z,65.99
2023-08-23T06:30:24.555Z,65.22
2023-08-23T06:32:54.634Z,64.98
2023-08-23T06:35:26.827Z,63.87
2023-08-23T06:37:56.843Z,63.79
2023-08-23T06:40:27.416Z,63.74
2023-08-23T06:42:57.629Z,63.95
2023-08-23T06:45:28.526Z,64.19
2023-08-23T06:47:58.619Z,64.69
2023-08-23T06:50:28.784Z,64.99
2023-08-23T06:52:58.912Z,64.92
2023-08-23T06:55:29.459Z,64.98
2023-08-23T06:58:02.331Z,64.24
2023-08-23T07:00:35.374Z,64.16
2023-08-23T07:03:06.667Z,64.64
2023-08-23T07:05:37.100Z,65.41
2023-08-23T07:08:20.571Z,65.10
2023-08-23T07:10:50.647Z,65.16
2023-08-23T07:13:21.370Z,65.04
2023-08-23T07:15:51.760Z,65.38
2023-08-23T07:18:22.501Z,65.43
2023-08-23T07:20:52.605Z,65.92
2023-08-23T07:23:23.045Z,65.60
2023-08-23T07:25:53.744Z,65.65
2023-08-23T07:28:26.826Z,65.90
2023-08-23T07:31:00.496Z,65.65
2023-08-23T07:33:30.664Z,66.08
2023-08-23T07:36:02.292Z,66.09
2023-08-23T07:38:35.892Z,66.42
2023-08-23T07:41:06.298Z,66.67
2023-08-23T07:43:39.268Z,66.06
2023-08-23T07:46:09.545Z,66.18
2023-08-23T07:48:42.436Z,66.14
2023-08-23T07:51:12.898Z,65.23
2023-08-23T07:53:45.549Z,65.18
2023-08-23T07:56:16.090Z,64.75
2023-08-23T07:58:46.765Z,65.31
2023-08-23T08:01:17.064Z,66.11
2023-08-23T08:03:47.084Z,65.97
2023-08-23T08:06:17.736Z,64.09
2023-08-23T08:08:47.739Z,64.50
2023-08-23T08:11:18.523Z,64.37
2023-08-23T08:13:49.241Z,64.34
2023-08-23T08:16:19.806Z,64.54
2023-08-23T08:18:49.944Z,63.68
2023-08-23T08:21:25.733Z,63.44
2023-08-23T08:23:57.631Z,64.32
2023-08-23T08:26:28.303Z,64.73
2023-08-23T08:28:58.274Z,64.75
2023-08-23T08:31:32.302Z,65.16
2023-08-23T08:34:03.562Z,65.06
2023-08-23T08:36:33.578Z,65.04
2023-08-23T08:39:03.941Z,65.80
2023-08-23T08:41:34.298Z,66.09
2023-08-23T08:44:05.018Z,65.98
2023-08-23T08:46:37.994Z,66.73
2023-08-23T08:49:08.552Z,66.55
2023-08-23T08:51:39.939Z,66.83
2023-08-23T08:54:10.728Z,67.47
2023-08-23T08:56:43.584Z,67.95
2023-08-23T08:59:17.228Z,67.82
2023-08-23T09:01:47.342Z,67.94
2023-08-23T09:04:18.708Z,67.98
2023-08-23T09:06:48.837Z,68.29
2023-08-23T09:09:19.819Z,68.10
2023-08-23T09:11:50.106Z,68.18
2023-08-23T09:14:23.498Z,68.72
2023-08-23T09:16:55.820Z,68.49
2023-08-23T09:19:29.405Z,69.05
2023-08-23T09:22:08.111Z,69.54
2023-08-23T09:24:41.366Z,70.09
2023-08-23T09:27:17.397Z,69.84
2023-08-23T09:29:56.769Z,71.18
2023-08-23T09:32:30.937Z,71.32
2023-08-23T09:35:11.759Z,71.73
2023-08-23T09:37:46.955Z,72.47
2023-08-23T09:40:24.021Z,72.10
2023-08-23T09:42:59.214Z,72.49
2023-08-23T09:45:31.081Z,72.01
2023-08-23T09:48:05.037Z,71.80
2023-08-23T09:50:35.422Z,71.54
2023-08-23T09:53:15.033Z,71.48
2023-08-23T09:55:45.573Z,71.98
2023-08-23T09:58:15.896Z,72.43
2023-08-23T10:00:50.938Z,72.02
2023-08-23T10:03:22.038Z,72.11
2023-08-23T10:05:56.119Z,72.50
2023-08-23T10:08:26.606Z,72.73
2023-08-23T10:10:56.944Z,72.55
2023-08-23T10:13:28.015Z,71.80
2023-08-23T10:15:59.185Z,71.77
2023-08-23T10:18:35.491Z,71.71
2023-08-23T10:21:06.190Z,72.38
2023-08-23T10:23:38.433Z,71.99
2023-08-23T10:26:20.651Z,72.05
2023-08-23T10:28:55.551Z,72.68
2023-08-23T10:31:29.436Z,72.45
2023-08-23T10:34:00.931Z,72.43
2023-08-23T10:36:33.217Z,72.04
2023-08-23T10:39:06.182Z,72.13
2023-08-23T10:41:37.185Z,71.13
2023-08-23T10:44:17.387Z,71.43
2023-08-23T10:46:48.316Z,70.99
2023-08-23T10:49:18.701Z,71.08
2023-08-23T10:51:50.019Z,70.71
2023-08-23T10:54:20.037Z,71.15
2023-08-23T10:56:53.032Z,71.22
2023-08-23T10:59:23.397Z,71.20
2023-08-23T11:01:56.890Z,71.73
2023-08-23T11:04:29.247Z,72.40
2023-08-23T11:07:00.863Z,72.15
2023-08-23T11:09:30.970Z,72.12
2023-08-23T11:12:01.373Z,71.85
2023-08-23T11:14:34.394Z,71.44
2023-08-23T11:17:09.469Z,72.25
2023-08-23T11:19:45.157Z,71.61
2023-08-23T11:22:19.697Z,71.43
2023-08-23T11:24:52.463Z,71.78
2023-08-23T11:27:22.487Z,71.98
2023-08-23T11:29:53.209Z,72.19
2023-08-23T11:32:24.005Z,72.16
2023-08-23T11:34:58.006Z,72.73
2023-08-23T11:37:28.103Z,72.79
2023-08-23T11:40:02.997Z,73.31
2023-08-23T11:42:33.593Z,73.88
2023-08-23T11:45:09.612Z,74.03
2023-08-23T11:47:42.527Z,74.19
2023-08-23T11:50:13.052Z,74.44
2023-08-23T11:52:43.791Z,74.92
2023-08-23T11:55:14.170Z,74.63
2023-08-23T11:57:44.127Z,75.00
2023-08-23T12:00:14.238Z,74.61
2023-08-23T12:02:44.342Z,74.79
2023-08-23T12:05:17.065Z,74.90
2023-08-23T12:07:48.096Z,75.11
2023-08-23T12:10:27.398Z,75.21
2023-08-23T12:12:58.073Z,76.04
2023-08-23T12:15:28.534Z,75.70
2023-08-23T12:17:59.738Z,75.38
2023-08-23T12:20:30.612Z,74.79
2023-08-23T12:23:01.506Z,74.11
2023-08-23T12:25:33.935Z,74.03
2023-08-23T12:28:09.921Z,73.70
2023-08-23T12:30:40.690Z,73.25
2023-08-23T12:33:12.000Z,73.08
2023-08-23T12:35:46.644Z,72.84
2023-08-23T12:38:17.096Z,73.00
2023-08-23T12:40:47.176Z,73.06
2023-08-23T12:43:17.385Z,73.47
2023-08-23T12:45:48.102Z,73.66
2023-08-23T12:48:18.658Z,74.12
2023-08-23T12:50:49.033Z,74.27
2023-08-23T12:53:21.647Z,74.27
2023-08-23T12:55:56.060Z,74.67
2023-08-23T12:58:26.921Z,74.38
2023-08-23T13:01:09.290Z,74.44
2023-08-23T13:03:39.551Z,74.40
2023-08-23T13:06:10.181Z,74.66
2023-08-23T13:08:41.926Z,74.72
2023-08-23T13:11:12.050Z,74.50
2023-08-23T13:13:43.514Z,74.44
2023-08-23T13:16:14.232Z,74.39
2023-08-23T13:18:44.350Z,74.80
2023-08-23T13:21:14.951Z,74.89
2023-08-23T13:23:47.621Z,74.96
2023-08-23T13:26:18.325Z,74.89
2023-08-23T13:28:48.776Z,74.96
2023-08-23T13:31:19.059Z,74.98
2023-08-23T13:33:50.856Z,74.71
2023-08-23T13:36:26.834Z,74.63
2023-08-23T13:38:57.122Z,74.75
2023-08-23T13:41:27.605Z,75.25
2023-08-23T13:44:02.174Z,75.31
2023-08-23T13:46:32.352Z,75.77
2023-08-23T13:49:02.395Z,76.04
2023-08-23T13:51:32.696Z,76.32
2023-08-23T13:54:02.799Z,76.17
2023-08-23T13:56:32.633Z,76.01
2023-08-23T13:59:05.808Z,75.77
2023-08-23T14:01:36.977Z,76.05
2023-08-23T14:04:07.158Z,76.02
2023-08-23T14:06:37.633Z,76.27
2023-08-23T14:09:12.472Z,76.59
2023-08-23T14:11:42.959Z,76.92
2023-08-23T14:14:14.286Z,77.16
2023-08-23T14:16:44.812Z,77.32
2023-08-23T14:19:21.302Z,77.53
2023-08-23T14:21:51.536Z,77.64
2023-08-23T14:24:22.722Z,77.66
2023-08-23T14:26:52.706Z,77.45
2023-08-23T14:29:23.677Z,77.30
2023-08-23T14:31:54.526Z,77.45
2023-08-23T14:34:25.853Z,77.38
2023-08-23T14:36:59.114Z,76.84
2023-08-23T14:39:29.982Z,75.90
2023-08-23T14:42:03.140Z,75.78
2023-08-23T14:44:33.294Z,75.08
2023-08-23T14:47:03.421Z,75.19
2023-08-23T14:49:33.769Z,75.31
2023-08-23T14:52:03.887Z,75.76
2023-08-23T14:54:37.427Z,76.10
2023-08-23T14:57:10.807Z,76.28
2023-08-23T14:59:42.425Z,76.45
2023-08-23T15:02:15.715Z,76.37
2023-08-23T15:04:47.041Z,76.15
2023-08-23T15:07:20.510Z,76.01
2023-08-23T15:09:53.990Z,76.44
2023-08-23T15:12:27.304Z,76.83
2023-08-23T15:15:02.476Z,77.05
2023-08-23T15:17:33.598Z,77.72
2023-08-23T15:20:03.869Z,77.97
2023-08-23T15:22:34.045Z,78.10
2023-08-23T15:25:04.786Z,78.53
2023-08-23T15:27:43.178Z,78.52
2023-08-23T15:30:15.108Z,78.48
2023-08-23T15:32:48.921Z,78.46
2023-08-23T15:35:21.706Z,78.52
2023-08-23T15:37:52.190Z,78.67
2023-08-23T15:40:23.085Z,78.41
2023-08-23T15:42:56.361Z,78.16
2023-08-23T15:45:29.478Z,77.12
2023-08-23T15:47:59.830Z,76.40
2023-08-23T15:50:30.071Z,75.83
2023-08-23T15:53:03.158Z,75.60
2023-08-23T15:55:36.178Z,75.45
2023-08-23T15:58:15.079Z,75.46
2023-08-23T16:00:49.556Z,75.89
2023-08-23T16:03:22.639Z,76.17
2023-08-23T16:06:03.049Z,76.12
2023-08-23T16:08:33.061Z,76.26
2023-08-23T16:11:06.146Z,76.40
2023-08-23T16:13:37.527Z,76.67
2023-08-23T16:16:07.892Z,77.53
2023-08-23T16:18:38.724Z,78.41
2023-08-23T16:21:35.249Z,78.47
2023-08-23T16:24:06.025Z,79.15
2023-08-23T16:26:36.691Z,78.29
2023-08-23T16:29:07.281Z,77.44
2023-08-23T16:31:38.045Z,77.26
2023-08-23T16:34:09.318Z,75.96
2023-08-23T16:36:57.234Z,75.15
2023-08-23T16:39:36.887Z,74.90
2023-08-23T16:42:07.268Z,74.44
2023-08-23T16:44:38.833Z,74.48
2023-08-23T16:47:11.779Z,74.72
2023-08-23T16:50:00.301Z,75.24
2023-08-23T16:52:33.477Z,75.33
2023-08-23T16:55:07.205Z,75.83
2023-08-23T16:57:49.004Z,76.60
2023-08-23T17:00:19.300Z,76.83
2023-08-23T17:02:52.336Z,77.36
2023-08-23T17:05:22.971Z,77.47
2023-08-23T17:07:52.972Z,77.28
2023-08-23T17:10:25.363Z,77.49
2023-08-23T17:12:57.051Z,77.63
2023-08-23T17:15:28.046Z,78.06
2023-08-23T17:18:01.358Z,78.08
2023-08-23T17:20:31.453Z,78.20
2023-08-23T17:23:02.665Z,78.57
2023-08-23T17:25:32.675Z,78.48
2023-08-23T17:28:05.284Z,78.17
2023-08-23T17:30:38.749Z,78.22
2023-08-23T17:33:10.389Z,77.42
2023-08-23T17:35:40.433Z,76.84
2023-08-23T17:38:13.064Z,76.58
2023-08-23T17:41:01.988Z,76.22
2023-08-23T17:43:33.107Z,76.30
2023-08-23T17:46:03.322Z,75.69
2023-08-23T17:48:33.944Z,75.91
2023-08-23T17:51:03.985Z,76.58
2023-08-23T17:53:37.262Z,76.37
2023-08-23T17:56:07.881Z,76.84
2023-08-23T17:58:40.969Z,77.40
2023-08-23T18:01:17.571Z,77.95
2023-08-23T18:03:48.049Z,78.20
2023-08-23T18:06:18.587Z,78.21
2023-08-23T18:08:51.246Z,78.26
2023-08-23T18:11:21.213Z,78.13
2023-08-23T18:13:54.443Z,77.76
2023-08-23T18:16:33.180Z,77.80
2023-08-23T18:19:03.683Z,77.85
2023-08-23T18:21:42.709Z,77.91
2023-08-23T18:24:18.381Z,78.14
2023-08-23T18:26:56.974Z,78.35
2023-08-23T18:29:29.866Z,78.83
2023-08-23T18:32:03.315Z,79.68
2023-08-23T18:34:59.464Z,79.81
2023-08-23T18:37:29.424Z,79.85
2023-08-23T18:40:00.187Z,79.29
2023-08-23T18:45:40.608Z,77.03
2023-08-23T18:48:39.751Z,76.64
2023-08-23T18:51:10.274Z,76.18
2023-08-23T18:53:43.473Z,76.57
2023-08-23T18:56:16.635Z,76.80
2023-08-23T18:58:51.809Z,77.52
2023-08-23T19:01:24.333Z,77.72
2023-08-23T19:04:04.056Z,78.62
2023-08-23T19:06:34.343Z,78.72
2023-08-23T19:09:04.593Z,78.70
2023-08-23T19:11:34.821Z,78.78
2023-08-23T19:14:13.431Z,78.57
2023-08-23T19:16:43.702Z,78.24
2023-08-23T19:19:13.743Z,77.73
2023-08-23T19:21:43.496Z,77.84
2023-08-23T19:24:13.935Z,78.19
2023-08-23T19:26:49.323Z,79.03
2023-08-23T19:29:20.509Z,79.54
2023-08-23T19:32:06.211Z,80.32
2023-08-23T19:34:37.373Z,80.32
2023-08-23T19:37:08.864Z,80.99
2023-08-23T19:39:39.301Z,80.92
2023-08-23T19:42:09.263Z,80.97
2023-08-23T19:44:42.654Z,80.95
2023-08-23T19:47:16.056Z,80.97
2023-08-23T19:49:49.111Z,81.65
2023-08-23T19:52:19.082Z,81.12
2023-08-23T19:54:51.682Z,80.72
2023-08-23T19:57:35.125Z,81.20
2023-08-23T20:00:09.281Z,81.19
2023-08-23T20:02:48.130Z,81.34
2023-08-23T20:05:18.664Z,81.35
2023-08-23T20:07:49.354Z,81.51
2023-08-23T20:10:19.711Z,81.37
2023-08-23T20:12:49.990Z,81.67
2023-08-23T20:15:20.060Z,81.55
2023-08-23T20:17:52.032Z,81.45
2023-08-23T20:20:22.599Z,81.18
2023-08-23T20:22:53.402Z,81.75
2023-08-23T20:25:24.305Z,81.46
2023-08-23T20:27:54.599Z,81.26
2023-08-23T20:30:26.695Z,81.57
2023-08-23T20:32:57.929Z,81.82
2023-08-23T20:35:30.916Z,81.94
2023-08-23T20:38:04.648Z,81.58
2023-08-23T20:40:35.396Z,81.76
2023-08-23T20:43:08.288Z,81.42
2023-08-23T20:45:41.233Z,81.66
2023-08-23T20:48:13.117Z,81.82
2023-08-23T20:50:44.104Z,81.97
2023-08-23T20:53:14.333Z,82.29
2023-08-23T20:55:44.446Z,82.20
2023-08-23T20:58:15.087Z,82.16
2023-08-23T21:00:47.421Z,82.47
2023-08-23T21:03:19.460Z,82.05
2023-08-23T21:05:49.371Z,82.48
2023-08-23T21:08:23.310Z,81.97
2023-08-23T21:10:53.992Z,81.50
2023-08-23T21:13:24.145Z,81.36
2023-08-23T21:15:55.008Z,81.87
2023-08-23T21:18:26.534Z,81.77
2023-08-23T21:20:57.685Z,81.71
2023-08-23T21:23:29.440Z,81.85
2023-08-23T21:25:59.716Z,81.89
2023-08-23T21:28:29.913Z,81.84
2023-08-23T21:31:03.892Z,82.07
2023-08-23T21:33:36.815Z,82.01
2023-08-23T21:36:07.008Z,81.63
2023-08-23T21:38:37.083Z,81.10
2023-08-23T21:41:07.833Z,81.40
2023-08-23T21:43:40.417Z,81.64
2023-08-23T21:46:10.823Z,81.55
2023-08-23T21:48:41.211Z,81.82
2023-08-23T21:51:11.148Z,81.53
2023-08-23T21:53:41.548Z,81.54
2023-08-23T21:56:11.773Z,81.90
2023-08-23T21:58:41.474Z,81.81
2023-08-23T22:01:11.602Z,81.77
2023-08-23T22:03:43.001Z,81.66
2023-08-23T22:06:14.461Z,81.77
2023-08-23T22:08:46.576Z,82.22
2023-08-23T22:11:18.476Z,82.11
2023-08-23T22:13:48.446Z,82.20
2023-08-23T22:16:18.526Z,82.26
2023-08-23T22:18:48.858Z,82.26
2023-08-23T22:21:19.931Z,82.20
2023-08-23T22:23:49.821Z,82.27
2023-08-23T22:26:22.507Z,82.70
2023-08-23T22:28:52.851Z,82.45
2023-08-23T22:31:22.924Z,82.53
2023-08-23T22:33:53.897Z,82.58
2023-08-23T22:36:24.121Z,82.56
2023-08-23T22:38:54.705Z,82.67
2023-08-23T22:41:25.328Z,82.37
2023-08-23T22:43:56.777Z,82.67
2023-08-23T22:46:32.435Z,82.36
2023-08-23T22:49:03.017Z,82.82
2023-08-23T22:51:32.963Z,82.84
2023-08-23T22:54:03.277Z,82.69
2023-08-23T22:56:33.192Z,82.82
2023-08-23T22:59:03.176Z,83.02
2023-08-23T23:01:36.528Z,82.97
2023-08-23T23:04:06.659Z,82.75
2023-08-23T23:06:36.404Z,82.50
2023-08-23T23:09:07.187Z,82.19
2023-08-23T23:11:37.770Z,82.52
2023-08-23T23:14:08.385Z,82.54
2023-08-23T23:16:38.652Z,82.94
2023-08-23T23:19:09.027Z,83.40
2023-08-23T23:21:39.022Z,83.63
2023-08-23T23:24:09.116Z,83.61
2023-08-23T23:26:39.072Z,84.53
2023-08-23T23:29:11.961Z,85.51
2023-08-23T23:31:42.989Z,87.10
2023-08-23T23:34:13.485Z,88.38
2023-08-23T23:36:43.503Z,88.79
2023-08-23T23:39:13.877Z,88.82
2023-08-23T23:41:44.511Z,89.20
2023-08-23T23:44:15.041Z,89.16
2023-08-23T23:46:48.458Z,89.00
2023-08-23T23:49:18.513Z,89.73
2023-08-23T23:51:49.258Z,91.21
2023-08-23T23:54:19.600Z,91.89
2023-08-23T23:56:51.239Z,92.97
2023-08-23T23:59:21.700Z,93.25
